Highfalls, North Carolina
Current Conditions -  °F | °C
As of 7:35 PM on Monday 22 Dec 2014 (Local Time) from K5W8 Reporting Station
Moderate Rain Moderate Rain  
Wind Chill: 31°   Ceiling: 300
Heat Index: 36°   Visibility: 3mi
Dew Point: 36°   Wind: 6mph
Humidity: 100%   Direction: 360°N
Pressure: 30.07"   Gusts: NA
Location:  35.48°N, 79.52°W
Report Text: K5W8 230035Z AUTO 36005KT 3SM RA OVC003 02/02 A3007 RMK AO2 T00200020
Loading
Personal Weather Stations






























Interactive Weather Map New forecast layout! Learn more

10-Day Weather Forecast

Advertisements
Track Severe Weather on mobile